Saville, Pennsylvania
Current Conditions -  °F | °C
As of 7:56 PM on Tuesday 21 Oct 2014 (Local Time) from KCXY Reporting Station
Broken Clouds Broken Clouds  
Wind Chill: 55°   Ceiling: 11000
Heat Index: 55°   Visibility: 10mi
Dew Point: 48°   Wind: 7mph
Humidity: 77%   Direction: 260°W
Pressure: 29.89"   Gusts: NA
Location:  40.4932°N, 77.217°W
Report Text: KCXY 212356Z 26006KT 10SM BKN110 13/09 A2989 RMK AO2 SLP122 T01280089 10183 20128 52018
Loading
Personal Weather Stations






























Interactive Weather Map
Tropical Storm Tracking
New forecast layout! Learn more

10-Day Weather Forecast

Advertisements
Track Severe Weather on mobile